createdAt,value
2023-04-15T00:00:55.211Z,28
2023-04-15T00:03:43.213Z,22
2023-04-15T00:06:31.175Z,19
2023-04-15T00:09:18.939Z,13
2023-04-15T00:12:06.479Z,19
2023-04-15T00:14:54.211Z,25
2023-04-15T00:17:41.987Z,21
2023-04-15T00:20:29.800Z,18
2023-04-15T00:23:17.357Z,24
2023-04-15T00:26:05.191Z,20
2023-04-15T00:28:52.766Z,22
2023-04-15T00:31:40.339Z,20
2023-04-15T00:34:27.954Z,19
2023-04-15T00:37:15.654Z,21
2023-04-15T00:40:05.894Z,19
2023-04-15T00:42:53.520Z,23
2023-04-15T00:45:41.311Z,21
2023-04-15T00:48:29.089Z,16
2023-04-15T00:51:17.201Z,11
2023-04-15T00:54:04.911Z,24
2023-04-15T00:56:52.439Z,26
2023-04-15T00:59:40.220Z,20
2023-04-15T01:02:27.992Z,18
2023-04-15T01:05:16.246Z,17
2023-04-15T01:08:04.004Z,21
2023-04-15T01:10:51.608Z,15
2023-04-15T01:13:39.177Z,20
2023-04-15T01:16:26.884Z,9
2023-04-15T01:19:14.600Z,16
2023-04-15T01:22:02.337Z,22
2023-04-15T01:24:50.034Z,17
2023-04-15T01:27:37.659Z,17
2023-04-15T01:30:25.270Z,14
2023-04-15T01:33:12.955Z,18
2023-04-15T01:36:00.567Z,24
2023-04-15T01:38:48.214Z,21
2023-04-15T01:41:35.861Z,19
2023-04-15T01:44:23.573Z,11
2023-04-15T01:47:11.259Z,23
2023-04-15T01:49:59.242Z,17
2023-04-15T01:52:46.772Z,41
2023-04-15T01:55:34.394Z,18
2023-04-15T01:58:22.161Z,32
2023-04-15T02:01:09.968Z,15
2023-04-15T02:03:57.763Z,20
2023-04-15T02:06:45.545Z,15
2023-04-15T02:09:33.268Z,21
2023-04-15T02:12:21.153Z,17
2023-04-15T02:15:08.837Z,22
2023-04-15T02:17:56.686Z,19
2023-04-15T02:20:44.459Z,25
2023-04-15T02:23:32.286Z,6
2023-04-15T02:26:19.864Z,21
2023-04-15T02:29:07.652Z,16
2023-04-15T02:31:55.585Z,14
2023-04-15T02:34:43.472Z,25
2023-04-15T02:37:31.210Z,15
2023-04-15T02:40:18.919Z,17
2023-04-15T02:43:06.455Z,19
2023-04-15T02:45:54.116Z,16
2023-04-15T02:48:41.891Z,9
2023-04-15T02:51:29.609Z,18
2023-04-15T02:54:17.237Z,15
2023-04-15T02:57:04.778Z,18
2023-04-15T02:59:52.321Z,22
2023-04-15T03:02:40.231Z,13
2023-04-15T03:05:28.601Z,16
2023-04-15T03:08:16.352Z,23
2023-04-15T03:11:04.004Z,18
2023-04-15T03:13:51.668Z,9
2023-04-15T03:16:39.291Z,17
2023-04-15T03:19:27.092Z,19
2023-04-15T03:22:14.985Z,17
2023-04-15T03:25:02.691Z,19
2023-04-15T03:27:50.280Z,20
2023-04-15T03:30:38.064Z,23
2023-04-15T03:33:25.836Z,18
2023-04-15T03:36:13.531Z,19
2023-04-15T03:39:01.544Z,19
2023-04-15T03:41:49.395Z,15
2023-04-15T03:44:37.075Z,23
2023-04-15T03:47:24.818Z,27
2023-04-15T03:50:12.592Z,20
2023-04-15T03:53:00.221Z,28
2023-04-15T03:55:47.938Z,24
2023-04-15T03:58:35.791Z,32
2023-04-15T04:01:23.471Z,35
2023-04-15T04:04:11.407Z,36
2023-04-15T04:06:59.341Z,61
2023-04-15T04:09:47.506Z,67
2023-04-15T04:12:35.545Z,90
2023-04-15T04:15:23.207Z,119
2023-04-15T04:18:11.138Z,158
2023-04-15T04:20:58.820Z,206
2023-04-15T04:23:46.549Z,271
2023-04-15T04:26:34.337Z,324
2023-04-15T04:29:22.056Z,399
2023-04-15T04:32:10.055Z,460
2023-04-15T04:34:58.096Z,517
2023-04-15T04:37:46.081Z,567
2023-04-15T04:40:34.649Z,615
2023-04-15T04:43:22.370Z,655
2023-04-15T04:46:10.320Z,710
2023-04-15T04:48:58.142Z,756
2023-04-15T04:51:45.769Z,783
2023-04-15T04:54:33.543Z,796
2023-04-15T04:57:21.273Z,810
2023-04-15T05:00:08.957Z,820
2023-04-15T05:02:56.877Z,826
2023-04-15T05:05:45.097Z,839
2023-04-15T05:08:32.821Z,852
2023-04-15T05:11:21.166Z,860
2023-04-15T05:14:08.746Z,865
2023-04-15T05:16:56.436Z,869
2023-04-15T05:19:44.345Z,880
2023-04-15T05:22:32.209Z,888
2023-04-15T05:25:19.935Z,895
2023-04-15T05:28:07.713Z,907
2023-04-15T05:30:55.383Z,907
2023-04-15T05:33:43.335Z,909
2023-04-15T05:36:31.188Z,918
2023-04-15T05:39:18.897Z,925
2023-04-15T05:42:06.634Z,930
2023-04-15T05:44:54.476Z,931
2023-04-15T05:47:42.273Z,939
2023-04-15T05:50:30.068Z,943
2023-04-15T05:53:17.788Z,948
2023-04-15T05:56:05.576Z,947
2023-04-15T05:58:53.868Z,939
2023-04-15T06:01:41.882Z,943
2023-04-15T06:04:29.762Z,953
2023-04-15T06:07:17.729Z,951
2023-04-15T06:10:08.175Z,951
2023-04-15T06:12:56.341Z,954
2023-04-15T06:15:44.017Z,961
2023-04-15T06:18:31.905Z,963
2023-04-15T06:21:20.325Z,968
2023-04-15T06:24:07.985Z,965
2023-04-15T06:26:55.701Z,966
2023-04-15T06:29:43.522Z,961
2023-04-15T06:32:31.134Z,954
2023-04-15T06:35:19.072Z,967
2023-04-15T06:38:06.748Z,969
2023-04-15T06:40:54.628Z,972
2023-04-15T06:43:42.385Z,971
2023-04-15T06:46:30.116Z,972
2023-04-15T06:49:17.928Z,975
2023-04-15T06:52:05.763Z,972
2023-04-15T06:54:53.499Z,975
2023-04-15T06:57:41.191Z,983
2023-04-15T07:00:28.988Z,987
2023-04-15T07:03:17.049Z,983
2023-04-15T07:06:04.835Z,983
2023-04-15T07:08:52.516Z,988
2023-04-15T07:11:40.141Z,984
2023-04-15T07:14:27.984Z,1012
2023-04-15T07:17:15.949Z,989
2023-04-15T07:20:03.998Z,984
2023-04-15T07:22:51.746Z,994
2023-04-15T07:25:39.523Z,994
2023-04-15T07:28:27.209Z,987
2023-04-15T07:31:15.112Z,991
2023-04-15T07:34:02.994Z,981
2023-04-15T07:36:52.341Z,993
2023-04-15T07:39:39.935Z,998
2023-04-15T07:42:27.666Z,998
2023-04-15T07:45:15.391Z,995
2023-04-15T07:48:03.351Z,992
2023-04-15T07:50:51.292Z,990
2023-04-15T07:53:38.890Z,986
2023-04-15T07:56:26.541Z,990
2023-04-15T07:59:14.353Z,982
2023-04-15T08:02:01.993Z,986
2023-04-15T08:04:49.951Z,989
2023-04-15T08:07:38.163Z,991
2023-04-15T08:10:25.797Z,986
2023-04-15T08:13:13.477Z,992
2023-04-15T08:16:01.139Z,989
2023-04-15T08:18:49.099Z,996
2023-04-15T08:21:36.934Z,983
2023-04-15T08:24:37.816Z,999
2023-04-15T08:27:26.934Z,993
2023-04-15T08:30:14.614Z,991
2023-04-15T08:33:02.245Z,991
2023-04-15T08:35:49.824Z,1016
2023-04-15T08:38:37.549Z,1003
2023-04-15T08:41:25.464Z,1005
2023-04-15T08:44:13.219Z,1003
2023-04-15T08:47:00.952Z,996
2023-04-15T08:49:48.797Z,991
2023-04-15T08:52:36.261Z,1003
2023-04-15T08:55:23.943Z,1009
2023-04-15T08:58:11.697Z,999
2023-04-15T09:00:59.501Z,1004
2023-04-15T09:03:47.456Z,1004
2023-04-15T09:06:35.441Z,994
2023-04-15T09:09:23.114Z,999
2023-04-15T09:12:10.749Z,993
2023-04-15T09:14:58.591Z,992
2023-04-15T09:17:46.209Z,1008
2023-04-15T09:20:33.940Z,1003
2023-04-15T09:23:21.532Z,1006
2023-04-15T09:26:09.102Z,1001
2023-04-15T09:28:56.716Z,995
2023-04-15T09:31:44.426Z,1010
2023-04-15T09:34:31.993Z,1007
2023-04-15T09:37:31.497Z,997
2023-04-15T09:40:19.621Z,997
2023-04-15T09:43:07.341Z,991
2023-04-15T09:45:55.025Z,994
2023-04-15T09:48:42.952Z,1001
2023-04-15T09:51:30.658Z,999
2023-04-15T09:54:26.085Z,998
2023-04-15T09:57:14.013Z,996
2023-04-15T10:00:01.501Z,994
2023-04-15T10:02:49.243Z,1000
2023-04-15T10:05:37.596Z,1000
2023-04-15T10:08:25.301Z,991
2023-04-15T10:11:12.988Z,997
2023-04-15T10:14:01.095Z,1001
2023-04-15T10:16:49.155Z,1018
2023-04-15T10:19:36.794Z,1012
2023-04-15T10:22:24.827Z,993
2023-04-15T10:25:12.321Z,1002
2023-04-15T10:27:59.998Z,995
2023-04-15T10:30:47.666Z,1002
2023-04-15T10:33:35.350Z,1001
2023-04-15T10:36:23.954Z,1009
2023-04-15T10:39:11.660Z,1006
2023-04-15T10:41:59.522Z,1008
2023-04-15T10:44:47.117Z,1009
2023-04-15T10:47:35.151Z,1009
2023-04-15T10:50:23.454Z,986
2023-04-15T10:53:11.159Z,983
2023-04-15T10:55:58.822Z,997
2023-04-15T10:58:46.522Z,995
2023-04-15T11:01:34.183Z,992
2023-04-15T11:04:22.206Z,982
2023-04-15T11:07:09.971Z,970
2023-04-15T11:09:57.755Z,972
2023-04-15T11:12:45.637Z,964
2023-04-15T11:15:33.374Z,977
2023-04-15T11:18:21.817Z,975
2023-04-15T11:21:09.567Z,993
2023-04-15T11:23:57.234Z,972
2023-04-15T11:26:45.014Z,979
2023-04-15T11:29:32.820Z,977
2023-04-15T11:32:20.742Z,983
2023-04-15T11:35:08.548Z,981
2023-04-15T11:37:56.357Z,1003
2023-04-15T11:40:46.325Z,986
2023-04-15T11:43:34.745Z,991
2023-04-15T11:46:23.079Z,980
2023-04-15T11:49:11.023Z,987
2023-04-15T11:51:58.653Z,983
2023-04-15T11:54:46.285Z,984
2023-04-15T11:57:34.059Z,977
2023-04-15T12:00:21.903Z,972
2023-04-15T12:03:09.800Z,973
2023-04-15T12:05:58.297Z,972
2023-04-15T12:08:45.989Z,961
2023-04-15T12:11:33.803Z,973
2023-04-15T12:14:21.786Z,977
2023-04-15T12:17:09.565Z,974
2023-04-15T12:20:11.813Z,971
2023-04-15T12:22:59.578Z,980
2023-04-15T12:25:47.200Z,984
2023-04-15T12:28:34.780Z,982
2023-04-15T12:31:22.496Z,972
2023-04-15T12:34:10.141Z,972
2023-04-15T12:36:58.030Z,979
2023-04-15T12:39:45.861Z,983
2023-04-15T12:42:33.441Z,978
2023-04-15T12:45:21.044Z,971
2023-04-15T12:48:08.709Z,973
2023-04-15T12:50:56.391Z,968
2023-04-15T12:53:44.138Z,955
2023-04-15T12:56:31.902Z,966
2023-04-15T12:59:19.422Z,964
2023-04-15T13:02:07.326Z,964
2023-04-15T13:04:55.723Z,960
2023-04-15T13:07:47.498Z,966
2023-04-15T13:10:35.550Z,954
2023-04-15T13:13:23.307Z,948
2023-04-15T13:16:11.022Z,961
2023-04-15T13:18:59.519Z,973
2023-04-15T13:21:47.121Z,971
2023-04-15T13:24:34.900Z,958
2023-04-15T13:27:22.586Z,967
2023-04-15T13:30:10.395Z,971
2023-04-15T13:32:58.119Z,965
2023-04-15T13:35:45.832Z,960
2023-04-15T13:38:33.392Z,969
2023-04-15T13:41:21.093Z,960
2023-04-15T13:44:08.902Z,955
2023-04-15T13:46:56.669Z,967
2023-04-15T13:49:44.613Z,963
2023-04-15T13:52:32.278Z,968
2023-04-15T13:55:21.909Z,941
2023-04-15T13:58:10.263Z,944
2023-04-15T14:00:58.119Z,946
2023-04-15T14:03:46.128Z,947
2023-04-15T14:06:34.513Z,947
2023-04-15T14:09:26.136Z,937
2023-04-15T14:12:14.174Z,950
2023-04-15T14:15:01.914Z,961
2023-04-15T14:17:49.766Z,960
2023-04-15T14:20:37.337Z,957
2023-04-15T14:23:25.014Z,971
2023-04-15T14:26:12.733Z,970
2023-04-15T14:29:00.415Z,960
2023-04-15T14:32:02.802Z,960
2023-04-15T14:34:59.403Z,947
2023-04-15T14:37:47.162Z,940
2023-04-15T14:40:34.792Z,936
2023-04-15T14:43:22.476Z,939
2023-04-15T14:46:10.162Z,929
2023-04-15T14:48:58.139Z,940
2023-04-15T14:51:45.857Z,947
2023-04-15T14:54:33.659Z,946
2023-04-15T14:57:21.339Z,959
2023-04-15T15:00:09.069Z,976
2023-04-15T15:02:56.733Z,961
2023-04-15T15:05:44.924Z,966
2023-04-15T15:08:32.807Z,952
2023-04-15T15:11:20.469Z,939
2023-04-15T15:14:08.293Z,938
2023-04-15T15:16:55.955Z,925
2023-04-15T15:19:43.809Z,922
2023-04-15T15:22:31.551Z,925
2023-04-15T15:25:19.170Z,932
2023-04-15T15:28:06.952Z,930
2023-04-15T15:30:54.615Z,940
2023-04-15T15:33:42.598Z,953
2023-04-15T15:36:32.298Z,960
2023-04-15T15:39:20.011Z,955
2023-04-15T15:42:07.667Z,943
2023-04-15T15:44:55.356Z,949
2023-04-15T15:47:42.937Z,940
2023-04-15T15:50:30.967Z,945
2023-04-15T15:53:18.537Z,930
2023-04-15T15:56:06.230Z,904
2023-04-15T15:58:54.224Z,923
2023-04-15T16:01:41.948Z,929
2023-04-15T16:04:30.015Z,923
2023-04-15T16:07:17.919Z,924
2023-04-15T16:10:05.435Z,908
2023-04-15T16:12:53.124Z,899
2023-04-15T16:15:40.836Z,874
2023-04-15T16:18:28.746Z,864
2023-04-15T16:21:16.307Z,868
2023-04-15T16:24:03.997Z,882
2023-04-15T16:26:54.343Z,858
2023-04-15T16:29:42.131Z,852
2023-04-15T16:32:29.840Z,853
2023-04-15T16:35:17.637Z,856
2023-04-15T16:38:05.374Z,867
2023-04-15T16:40:53.000Z,864
2023-04-15T16:43:40.742Z,860
2023-04-15T16:46:28.558Z,846
2023-04-15T16:49:16.431Z,844
2023-04-15T16:52:04.267Z,824
2023-04-15T16:54:51.953Z,824
2023-04-15T16:57:50.778Z,809
2023-04-15T17:00:50.322Z,825
2023-04-15T17:03:38.261Z,837
2023-04-15T17:06:26.578Z,822
2023-04-15T17:09:14.443Z,798
2023-04-15T17:12:02.069Z,796
2023-04-15T18:06:00.422Z,438
2023-04-15T18:08:48.190Z,418
2023-04-15T18:11:35.983Z,394
2023-04-15T18:14:34.049Z,374
2023-04-15T18:17:22.544Z,353
2023-04-15T18:20:10.501Z,297
2023-04-15T18:22:58.242Z,277
2023-04-15T18:25:46.050Z,262
2023-04-15T18:28:33.830Z,246
2023-04-15T18:31:21.566Z,194
2023-04-15T18:34:09.405Z,157
2023-04-15T18:36:57.079Z,116
2023-04-15T18:39:44.738Z,97
2023-04-15T18:42:32.378Z,80
2023-04-15T18:45:20.123Z,67
2023-04-15T18:48:07.950Z,58
2023-04-15T18:50:55.790Z,41
2023-04-15T18:53:43.686Z,35
2023-04-15T18:56:31.483Z,28
2023-04-15T18:59:28.314Z,24
2023-04-15T19:02:18.323Z,16
2023-04-15T19:05:06.486Z,18
2023-04-15T19:07:54.369Z,10
2023-04-15T19:10:42.051Z,17
2023-04-15T19:13:29.861Z,12
2023-04-15T19:16:17.691Z,15
2023-04-15T19:19:05.746Z,8
2023-04-15T19:21:53.646Z,20
2023-04-15T19:24:41.343Z,16
2023-04-15T19:27:29.061Z,24
2023-04-15T19:30:19.629Z,9
2023-04-15T19:33:07.538Z,20
2023-04-15T19:35:55.225Z,11
2023-04-15T19:38:42.901Z,16
2023-04-15T19:41:30.596Z,11
2023-04-15T19:44:18.164Z,18
2023-04-15T19:47:05.920Z,21
2023-04-15T19:49:53.778Z,11
2023-04-15T19:52:41.521Z,4
2023-04-15T19:55:29.139Z,19
2023-04-15T19:58:16.930Z,12
2023-04-15T20:01:04.649Z,14
2023-04-15T20:03:52.996Z,21
2023-04-15T20:06:41.111Z,22
2023-04-15T20:09:28.879Z,20
2023-04-15T20:12:48.967Z,25
2023-04-15T20:15:40.859Z,29
2023-04-15T20:18:28.736Z,32
2023-04-15T20:21:16.543Z,26
2023-04-15T20:24:04.492Z,26
2023-04-15T20:26:52.386Z,18
2023-04-15T20:29:40.018Z,19
2023-04-15T20:32:27.665Z,24
2023-04-15T20:35:15.476Z,21
2023-04-15T20:38:03.124Z,20
2023-04-15T20:40:50.841Z,15
2023-04-15T20:43:38.628Z,23
2023-04-15T20:49:14.543Z,25
2023-04-15T20:52:02.241Z,23
2023-04-15T20:54:50.090Z,29
2023-04-15T20:57:37.827Z,22
2023-04-15T21:00:25.557Z,17
2023-04-15T21:03:15.094Z,24
2023-04-15T21:06:03.558Z,23
2023-04-15T21:08:51.239Z,10
2023-04-15T21:11:57.144Z,20
2023-04-15T21:14:45.089Z,19
2023-04-15T21:17:32.839Z,23
2023-04-15T21:20:21.606Z,24
2023-04-15T21:23:10.376Z,21
2023-04-15T21:25:58.931Z,22
2023-04-15T21:28:46.790Z,22
2023-04-15T21:31:34.795Z,27
2023-04-15T21:34:22.789Z,28
2023-04-15T21:37:10.469Z,13
2023-04-15T21:39:58.310Z,23
2023-04-15T21:42:45.957Z,20
2023-04-15T21:45:33.647Z,31
2023-04-15T21:48:44.903Z,24
2023-04-15T21:51:32.586Z,21
2023-04-15T21:54:20.205Z,24
2023-04-15T21:57:07.940Z,20
2023-04-15T21:59:55.696Z,15
2023-04-15T22:02:43.487Z,22
2023-04-15T22:05:31.493Z,13
2023-04-15T22:08:19.197Z,24
2023-04-15T22:11:30.608Z,26
2023-04-15T22:14:18.295Z,11
2023-04-15T22:17:06.140Z,17
2023-04-15T22:19:54.295Z,4
2023-04-15T22:22:43.733Z,19
2023-04-15T22:25:32.090Z,16
2023-04-15T22:28:19.679Z,21
2023-04-15T22:31:07.565Z,22
2023-04-15T22:33:55.535Z,24
2023-04-15T22:36:43.288Z,21
2023-04-15T22:39:31.050Z,26
2023-04-15T22:42:18.933Z,24
2023-04-15T22:45:06.513Z,20
2023-04-15T22:47:54.226Z,15
2023-04-15T22:50:42.448Z,15
2023-04-15T22:53:30.195Z,17
2023-04-15T22:56:17.853Z,19
2023-04-15T22:59:05.530Z,19
2023-04-15T23:01:53.169Z,24
2023-04-15T23:04:41.698Z,18
2023-04-15T23:07:32.997Z,18
2023-04-15T23:10:20.884Z,21
2023-04-15T23:13:08.599Z,15
2023-04-15T23:15:56.351Z,14
2023-04-15T23:18:44.165Z,15
2023-04-15T23:21:32.058Z,13
2023-04-15T23:24:19.624Z,22
2023-04-15T23:27:07.286Z,27
2023-04-15T23:29:55.090Z,18
2023-04-15T23:32:42.881Z,17
2023-04-15T23:35:30.607Z,8
2023-04-15T23:38:18.338Z,25
2023-04-15T23:41:05.966Z,15
2023-04-15T23:43:53.707Z,15
2023-04-15T23:46:41.631Z,17
2023-04-15T23:49:29.421Z,19
2023-04-15T23:52:17.005Z,25
2023-04-15T23:55:04.780Z,10
2023-04-15T23:57:52.460Z,18
